sensor_id;sensor_type;location;lat;lon;timestamp;pressure;altitude;pressure_sealevel;temperature;humidity
68320;BME280;55168;51.120;17.024;2023-03-02T00:00:00;101130;;;-2.6;100.0
68320;BME280;55168;51.120;17.024;2023-03-02T00:01:02;101130;;;-2.6;100.0
68320;BME280;55168;51.120;17.024;2023-03-02T00:02:15;101130;;;-2.6;100.0
68320;BME280;55168;51.120;17.024;2023-03-02T00:03:00;101130;;;-2.6;100.0
68320;BME280;55168;51.120;17.024;2023-03-02T00:04:00;101130;;;-2.6;100.0
68320;BME280;55168;51.120;17.024;2023-03-02T00:05:00;101130;;;-2.7;100.0
68320;BME280;55168;51.120;17.024;2023-03-02T00:06:00;101130;;;-2.7;100.0
68320;BME280;55168;51.120;17.024;2023-03-02T00:07:02;101130;;;-2.7;100.0
68320;BME280;55168;51.120;17.024;2023-03-02T00:08:00;101130;;;-2.7;100.0
68320;BME280;55168;51.120;17.024;2023-03-02T00:09:00;101130;;;-2.7;100.0
68320;BME280;55168;51.120;17.024;2023-03-02T00:10:00;101130;;;-2.7;100.0
68320;BME280;55168;51.120;17.024;2023-03-02T00:11:00;101130;;;-2.7;100.0
68320;BME280;55168;51.120;17.024;2023-03-02T00:12:00;101130;;;-2.8;100.0
68320;BME280;55168;51.120;17.024;2023-03-02T00:13:00;101130;;;-2.8;100.0
68320;BME280;55168;51.120;17.024;2023-03-02T00:14:00;101120;;;-2.8;100.0
68320;BME280;55168;51.120;17.024;2023-03-02T00:15:00;101120;;;-2.8;100.0
68320;BME280;55168;51.120;17.024;2023-03-02T00:16:00;101130;;;-2.8;100.0
68320;BME280;55168;51.120;17.024;2023-03-02T00:17:00;101130;;;-2.9;100.0
68320;BME280;55168;51.120;17.024;2023-03-02T00:18:00;101130;;;-2.9;100.0
68320;BME280;55168;51.120;17.024;2023-03-02T00:19:00;101130;;;-2.9;100.0
68320;BME280;55168;51.120;17.024;2023-03-02T00:20:00;101130;;;-2.9;100.0
68320;BME280;55168;51.120;17.024;2023-03-02T00:21:00;101130;;;-2.9;100.0
68320;BME280;55168;51.120;17.024;2023-03-02T00:22:00;101130;;;-3.0;100.0
68320;BME280;55168;51.120;17.024;2023-03-02T00:23:00;101130;;;-3.0;100.0
68320;BME280;55168;51.120;17.024;2023-03-02T00:24:00;101120;;;-3.0;100.0
68320;BME280;55168;51.120;17.024;2023-03-02T00:25:00;101120;;;-3.0;100.0
68320;BME280;55168;51.120;17.024;2023-03-02T00:26:00;101120;;;-3.0;100.0
68320;BME280;55168;51.120;17.024;2023-03-02T00:27:00;101120;;;-3.0;100.0
68320;BME280;55168;51.120;17.024;2023-03-02T00:28:00;101120;;;-2.9;100.0
68320;BME280;55168;51.120;17.024;2023-03-02T00:29:00;101120;;;-2.8;100.0
68320;BME280;55168;51.120;17.024;2023-03-02T00:30:00;101120;;;-2.9;100.0
68320;BME280;55168;51.120;17.024;2023-03-02T00:31:02;101120;;;-2.9;100.0
68320;BME280;55168;51.120;17.024;2023-03-02T00:32:00;101120;;;-2.9;100.0
68320;BME280;55168;51.120;17.024;2023-03-02T00:33:00;101120;;;-2.9;100.0
68320;BME280;55168;51.120;17.024;2023-03-02T00:34:00;101120;;;-3.0;100.0
68320;BME280;55168;51.120;17.024;2023-03-02T00:35:00;101120;;;-3.0;100.0
68320;BME280;55168;51.120;17.024;2023-03-02T00:36:00;101120;;;-2.9;100.0
68320;BME280;55168;51.120;17.024;2023-03-02T00:37:00;101120;;;-2.8;100.0
68320;BME280;55168;51.120;17.024;2023-03-02T00:38:00;101120;;;-2.8;100.0
68320;BME280;55168;51.120;17.024;2023-03-02T00:39:00;101120;;;-2.8;100.0
68320;BME280;55168;51.120;17.024;2023-03-02T00:40:00;101120;;;-2.7;100.0
68320;BME280;55168;51.120;17.024;2023-03-02T00:41:00;101120;;;-2.7;100.0
68320;BME280;55168;51.120;17.024;2023-03-02T00:42:00;101120;;;-2.7;100.0
68320;BME280;55168;51.120;17.024;2023-03-02T00:43:00;101120;;;-2.7;100.0
68320;BME280;55168;51.120;17.024;2023-03-02T00:44:00;101120;;;-2.7;100.0
68320;BME280;55168;51.120;17.024;2023-03-02T00:45:00;101120;;;-2.7;100.0
68320;BME280;55168;51.120;17.024;2023-03-02T00:46:06;101120;;;-2.7;100.0
68320;BME280;55168;51.120;17.024;2023-03-02T00:47:00;101120;;;-2.8;100.0
68320;BME280;55168;51.120;17.024;2023-03-02T00:48:00;101120;;;-2.8;100.0
68320;BME280;55168;51.120;17.024;2023-03-02T00:49:00;101120;;;-2.8;100.0
68320;BME280;55168;51.120;17.024;2023-03-02T00:50:00;101120;;;-2.8;100.0
68320;BME280;55168;51.120;17.024;2023-03-02T00:51:00;101120;;;-2.8;100.0
68320;BME280;55168;51.120;17.024;2023-03-02T00:52:00;101120;;;-2.8;100.0
68320;BME280;55168;51.120;17.024;2023-03-02T00:53:00;101110;;;-2.8;100.0
68320;BME280;55168;51.120;17.024;2023-03-02T00:54:00;101110;;;-2.8;100.0
68320;BME280;55168;51.120;17.024;2023-03-02T00:55:00;101120;;;-2.8;100.0
68320;BME280;55168;51.120;17.024;2023-03-02T00:56:00;101120;;;-2.8;100.0
68320;BME280;55168;51.120;17.024;2023-03-02T00:57:00;101110;;;-2.8;100.0
68320;BME280;55168;51.120;17.024;2023-03-02T00:58:00;101110;;;-2.8;100.0
68320;BME280;55168;51.120;17.024;2023-03-02T00:59:09;101110;;;-2.7;100.0
68320;BME280;55168;51.120;17.024;2023-03-02T01:00:00;101110;;;-2.7;100.0
68320;BME280;55168;51.120;17.024;2023-03-02T01:01:09;101110;;;-2.7;100.0
68320;BME280;55168;51.120;17.024;2023-03-02T01:02:00;101110;;;-2.7;100.0
68320;BME280;55168;51.120;17.024;2023-03-02T01:03:00;101110;;;-2.7;100.0
68320;BME280;55168;51.120;17.024;2023-03-02T01:04:00;101100;;;-2.7;100.0
68320;BME280;55168;51.120;17.024;2023-03-02T01:05:00;101100;;;-2.7;100.0
68320;BME280;55168;51.120;17.024;2023-03-02T01:06:00;101100;;;-2.7;100.0
68320;BME280;55168;51.120;17.024;2023-03-02T01:07:01;101100;;;-2.7;100.0
68320;BME280;55168;51.120;17.024;2023-03-02T01:08:00;101100;;;-2.7;100.0
68320;BME280;55168;51.120;17.024;2023-03-02T01:09:00;101100;;;-2.7;100.0
68320;BME280;55168;51.120;17.024;2023-03-02T01:10:00;101100;;;-2.7;100.0
68320;BME280;55168;51.120;17.024;2023-03-02T01:11:00;101090;;;-2.7;100.0
68320;BME280;55168;51.120;17.024;2023-03-02T01:12:00;101100;;;-2.7;100.0
68320;BME280;55168;51.120;17.024;2023-03-02T01:13:00;101090;;;-2.8;100.0
68320;BME280;55168;51.120;17.024;2023-03-02T01:14:00;101090;;;-2.8;100.0
68320;BME280;55168;51.120;17.024;2023-03-02T01:15:00;101090;;;-2.8;100.0
68320;BME280;55168;51.120;17.024;2023-03-02T01:16:01;101090;;;-2.8;100.0
68320;BME280;55168;51.120;17.024;2023-03-02T01:17:00;101080;;;-2.8;100.0
68320;BME280;55168;51.120;17.024;2023-03-02T01:18:00;101080;;;-2.9;100.0
68320;BME280;55168;51.120;17.024;2023-03-02T01:19:00;101080;;;-2.9;100.0
68320;BME280;55168;51.120;17.024;2023-03-02T01:20:00;101080;;;-2.9;100.0
68320;BME280;55168;51.120;17.024;2023-03-02T01:21:01;101080;;;-3.0;100.0
68320;BME280;55168;51.120;17.024;2023-03-02T01:22:00;101080;;;-3.0;100.0
68320;BME280;55168;51.120;17.024;2023-03-02T01:23:00;101070;;;-3.0;100.0
68320;BME280;55168;51.120;17.024;2023-03-02T01:24:00;101070;;;-3.1;100.0
68320;BME280;55168;51.120;17.024;2023-03-02T01:25:00;101070;;;-3.1;100.0
68320;BME280;55168;51.120;17.024;2023-03-02T01:26:00;101070;;;-3.1;100.0
68320;BME280;55168;51.120;17.024;2023-03-02T01:27:00;101070;;;-3.0;100.0
68320;BME280;55168;51.120;17.024;2023-03-02T01:28:00;101070;;;-3.0;100.0
68320;BME280;55168;51.120;17.024;2023-03-02T01:29:00;101060;;;-3.0;100.0
68320;BME280;55168;51.120;17.024;2023-03-02T01:30:00;101060;;;-3.1;100.0
68320;BME280;55168;51.120;17.024;2023-03-02T01:31:00;101070;;;-3.1;100.0
68320;BME280;55168;51.120;17.024;2023-03-02T01:32:00;101070;;;-3.1;100.0
68320;BME280;55168;51.120;17.024;2023-03-02T01:33:00;101070;;;-3.1;100.0
68320;BME280;55168;51.120;17.024;2023-03-02T01:34:00;101060;;;-3.1;100.0
68320;BME280;55168;51.120;17.024;2023-03-02T01:35:00;101070;;;-3.1;100.0
68320;BME280;55168;51.120;17.024;2023-03-02T01:36:00;101060;;;-3.2;100.0
68320;BME280;55168;51.120;17.024;2023-03-02T01:37:00;101060;;;-3.2;100.0
68320;BME280;55168;51.120;17.024;2023-03-02T01:38:00;101060;;;-3.3;100.0
68320;BME280;55168;51.120;17.024;2023-03-02T01:39:00;101060;;;-3.3;100.0
68320;BME280;55168;51.120;17.024;2023-03-02T01:40:00;101060;;;-3.3;100.0
68320;BME280;55168;51.120;17.024;2023-03-02T01:41:00;101060;;;-3.2;100.0
68320;BME280;55168;51.120;17.024;2023-03-02T01:42:00;101060;;;-3.2;100.0
68320;BME280;55168;51.120;17.024;2023-03-02T01:43:00;101060;;;-3.2;100.0
68320;BME280;55168;51.120;17.024;2023-03-02T01:44:00;101060;;;-3.2;100.0
68320;BME280;55168;51.120;17.024;2023-03-02T01:45:00;101060;;;-3.3;100.0
68320;BME280;55168;51.120;17.024;2023-03-02T01:46:00;101060;;;-3.3;100.0
68320;BME280;55168;51.120;17.024;2023-03-02T01:47:00;101060;;;-3.3;100.0
68320;BME280;55168;51.120;17.024;2023-03-02T01:48:00;101050;;;-3.3;100.0
68320;BME280;55168;51.120;17.024;2023-03-02T01:49:01;101060;;;-3.4;100.0
68320;BME280;55168;51.120;17.024;2023-03-02T01:50:02;101050;;;-3.4;100.0
68320;BME280;55168;51.120;17.024;2023-03-02T01:51:00;101050;;;-3.3;100.0
68320;BME280;55168;51.120;17.024;2023-03-02T01:52:00;101060;;;-3.3;100.0
68320;BME280;55168;51.120;17.024;2023-03-02T01:53:00;101050;;;-3.3;100.0
68320;BME280;55168;51.120;17.024;2023-03-02T01:54:01;101050;;;-3.3;100.0
68320;BME280;55168;51.120;17.024;2023-03-02T01:55:01;101050;;;-3.3;100.0
68320;BME280;55168;51.120;17.024;2023-03-02T01:56:00;101050;;;-3.2;100.0
68320;BME280;55168;51.120;17.024;2023-03-02T01:57:00;101050;;;-3.3;100.0
68320;BME280;55168;51.120;17.024;2023-03-02T01:58:00;101050;;;-3.3;100.0
68320;BME280;55168;51.120;17.024;2023-03-02T01:59:01;101050;;;-3.3;100.0
68320;BME280;55168;51.120;17.024;2023-03-02T02:00:01;101050;;;-3.2;100.0
68320;BME280;55168;51.120;17.024;2023-03-02T02:01:00;101050;;;-3.2;100.0
68320;BME280;55168;51.120;17.024;2023-03-02T02:02:01;101050;;;-3.3;100.0
68320;BME280;55168;51.120;17.024;2023-03-02T02:03:01;101050;;;-3.2;100.0
68320;BME280;55168;51.120;17.024;2023-03-02T02:04:00;101040;;;-3.3;100.0
68320;BME280;55168;51.120;17.024;2023-03-02T02:05:00;101050;;;-3.2;100.0
68320;BME280;55168;51.120;17.024;2023-03-02T02:07:01;101040;;;-3.1;100.0
68320;BME280;55168;51.120;17.024;2023-03-02T02:08:00;101040;;;-3.1;100.0
68320;BME280;55168;51.120;17.024;2023-03-02T02:09:00;101040;;;-3.1;100.0
68320;BME280;55168;51.120;17.024;2023-03-02T02:10:00;101040;;;-3.1;100.0
68320;BME280;55168;51.120;17.024;2023-03-02T02:11:00;101040;;;-3.2;100.0
68320;BME280;55168;51.120;17.024;2023-03-02T02:12:00;101040;;;-3.2;100.0
68320;BME280;55168;51.120;17.024;2023-03-02T02:13:00;101040;;;-3.2;100.0
68320;BME280;55168;51.120;17.024;2023-03-02T02:14:00;101030;;;-3.2;100.0
68320;BME280;55168;51.120;17.024;2023-03-02T02:15:00;101030;;;-3.2;100.0
68320;BME280;55168;51.120;17.024;2023-03-02T02:16:00;101030;;;-3.3;100.0
68320;BME280;55168;51.120;17.024;2023-03-02T02:17:00;101030;;;-3.3;100.0
68320;BME280;55168;51.120;17.024;2023-03-02T02:18:00;101030;;;-3.3;100.0
68320;BME280;55168;51.120;17.024;2023-03-02T02:19:00;101030;;;-3.3;100.0
68320;BME280;55168;51.120;17.024;2023-03-02T02:21:00;101030;;;-3.3;100.0
68320;BME280;55168;51.120;17.024;2023-03-02T02:22:00;101030;;;-3.3;100.0
68320;BME280;55168;51.120;17.024;2023-03-02T02:23:03;101040;;;-3.4;100.0
68320;BME280;55168;51.120;17.024;2023-03-02T02:25:01;101030;;;-3.4;100.0
68320;BME280;55168;51.120;17.024;2023-03-02T02:26:05;101030;;;-3.5;100.0
68320;BME280;55168;51.120;17.024;2023-03-02T02:27:00;101030;;;-3.5;100.0
68320;BME280;55168;51.120;17.024;2023-03-02T02:28:00;101030;;;-3.5;100.0
68320;BME280;55168;51.120;17.024;2023-03-02T02:29:01;101030;;;-3.5;100.0
68320;BME280;55168;51.120;17.024;2023-03-02T02:30:01;101030;;;-3.5;100.0
68320;BME280;55168;51.120;17.024;2023-03-02T02:31:03;101030;;;-3.5;100.0
68320;BME280;55168;51.120;17.024;2023-03-02T02:32:02;101030;;;-3.6;100.0
68320;BME280;55168;51.120;17.024;2023-03-02T02:33:00;101030;;;-3.6;100.0
68320;BME280;55168;51.120;17.024;2023-03-02T02:34:05;101030;;;-3.6;100.0
68320;BME280;55168;51.120;17.024;2023-03-02T02:35:02;101020;;;-3.7;100.0
68320;BME280;55168;51.120;17.024;2023-03-02T02:36:02;101020;;;-3.7;100.0
68320;BME280;55168;51.120;17.024;2023-03-02T02:37:06;101020;;;-3.7;100.0
68320;BME280;55168;51.120;17.024;2023-03-02T02:38:01;101020;;;-3.7;100.0
68320;BME280;55168;51.120;17.024;2023-03-02T02:39:03;101020;;;-3.7;100.0
68320;BME280;55168;51.120;17.024;2023-03-02T02:40:00;101020;;;-3.7;100.0
68320;BME280;55168;51.120;17.024;2023-03-02T02:41:01;101020;;;-3.7;100.0
68320;BME280;55168;51.120;17.024;2023-03-02T02:42:02;101020;;;-3.7;100.0
68320;BME280;55168;51.120;17.024;2023-03-02T02:43:00;101020;;;-3.8;100.0
68320;BME280;55168;51.120;17.024;2023-03-02T02:44:00;101020;;;-3.8;100.0
68320;BME280;55168;51.120;17.024;2023-03-02T02:45:01;101020;;;-3.8;100.0
68320;BME280;55168;51.120;17.024;2023-03-02T02:46:00;101020;;;-3.8;100.0
68320;BME280;55168;51.120;17.024;2023-03-02T02:47:00;101020;;;-3.8;100.0
68320;BME280;55168;51.120;17.024;2023-03-02T02:48:00;101020;;;-3.6;100.0
68320;BME280;55168;51.120;17.024;2023-03-02T02:49:01;101020;;;-3.6;100.0
68320;BME280;55168;51.120;17.024;2023-03-02T02:50:00;101020;;;-3.6;100.0
68320;BME280;55168;51.120;17.024;2023-03-02T02:51:00;101020;;;-3.5;100.0
68320;BME280;55168;51.120;17.024;2023-03-02T02:52:00;101020;;;-3.6;100.0
68320;BME280;55168;51.120;17.024;2023-03-02T02:53:17;101020;;;-3.5;100.0
68320;BME280;55168;51.120;17.024;2023-03-02T02:54:03;101020;;;-3.5;100.0
68320;BME280;55168;51.120;17.024;2023-03-02T02:55:00;101010;;;-3.5;100.0
68320;BME280;55168;51.120;17.024;2023-03-02T02:56:00;101010;;;-3.5;100.0
68320;BME280;55168;51.120;17.024;2023-03-02T02:57:00;101010;;;-3.5;100.0
68320;BME280;55168;51.120;17.024;2023-03-02T02:58:01;101000;;;-3.5;100.0
68320;BME280;55168;51.120;17.024;2023-03-02T02:59:01;101000;;;-3.5;100.0
68320;BME280;55168;51.120;17.024;2023-03-02T03:00:00;101010;;;-3.5;100.0
68320;BME280;55168;51.120;17.024;2023-03-02T03:01:00;101010;;;-3.4;100.0
68320;BME280;55168;51.120;17.024;2023-03-02T03:02:00;101000;;;-3.3;100.0
68320;BME280;55168;51.120;17.024;2023-03-02T03:03:01;101010;;;-3.3;100.0
68320;BME280;55168;51.120;17.024;2023-03-02T03:04:01;101000;;;-3.3;100.0
68320;BME280;55168;51.120;17.024;2023-03-02T03:05:00;101010;;;-3.3;100.0
68320;BME280;55168;51.120;17.024;2023-03-02T03:06:02;101010;;;-3.2;100.0
68320;BME280;55168;51.120;17.024;2023-03-02T03:07:01;101010;;;-3.3;100.0
68320;BME280;55168;51.120;17.024;2023-03-02T03:08:08;101010;;;-3.3;100.0
68320;BME280;55168;51.120;17.024;2023-03-02T03:09:00;101010;;;-3.4;100.0
68320;BME280;55168;51.120;17.024;2023-03-02T03:10:04;101010;;;-3.4;100.0
68320;BME280;55168;51.120;17.024;2023-03-02T03:11:00;101010;;;-3.4;100.0
68320;BME280;55168;51.120;17.024;2023-03-02T03:12:01;101010;;;-3.4;100.0
68320;BME280;55168;51.120;17.024;2023-03-02T03:13:00;101010;;;-3.4;100.0
68320;BME280;55168;51.120;17.024;2023-03-02T03:14:04;101010;;;-3.5;100.0
68320;BME280;55168;51.120;17.024;2023-03-02T03:15:00;101010;;;-3.5;100.0
68320;BME280;55168;51.120;17.024;2023-03-02T03:16:00;101010;;;-3.6;100.0
68320;BME280;55168;51.120;17.024;2023-03-02T03:17:00;101010;;;-3.6;100.0
68320;BME280;55168;51.120;17.024;2023-03-02T03:18:00;101010;;;-3.6;100.0
68320;BME280;55168;51.120;17.024;2023-03-02T03:19:03;101010;;;-3.6;100.0
68320;BME280;55168;51.120;17.024;2023-03-02T03:20:00;101010;;;-3.6;100.0
68320;BME280;55168;51.120;17.024;2023-03-02T03:21:00;101010;;;-3.6;100.0
68320;BME280;55168;51.120;17.024;2023-03-02T03:22:00;101010;;;-3.6;100.0
68320;BME280;55168;51.120;17.024;2023-03-02T03:23:00;101010;;;-3.6;100.0
68320;BME280;55168;51.120;17.024;2023-03-02T03:24:00;101010;;;-3.6;100.0
68320;BME280;55168;51.120;17.024;2023-03-02T03:25:00;101010;;;-3.6;100.0
68320;BME280;55168;51.120;17.024;2023-03-02T03:26:00;101010;;;-3.5;100.0
68320;BME280;55168;51.120;17.024;2023-03-02T03:27:00;101010;;;-3.5;100.0
68320;BME280;55168;51.120;17.024;2023-03-02T03:28:00;101020;;;-3.5;100.0
68320;BME280;55168;51.120;17.024;2023-03-02T03:29:00;101010;;;-3.5;100.0
68320;BME280;55168;51.120;17.024;2023-03-02T03:30:00;101010;;;-3.5;100.0
68320;BME280;55168;51.120;17.024;2023-03-02T03:31:00;101010;;;-3.5;100.0
68320;BME280;55168;51.120;17.024;2023-03-02T03:32:00;101010;;;-3.6;100.0
68320;BME280;55168;51.120;17.024;2023-03-02T03:33:00;101010;;;-3.6;100.0
68320;BME280;55168;51.120;17.024;2023-03-02T03:34:00;101010;;;-3.6;100.0
68320;BME280;55168;51.120;17.024;2023-03-02T03:35:00;101000;;;-3.7;100.0
68320;BME280;55168;51.120;17.024;2023-03-02T03:36:00;101010;;;-3.7;100.0
68320;BME280;55168;51.120;17.024;2023-03-02T03:37:00;101010;;;-3.8;100.0
68320;BME280;55168;51.120;17.024;2023-03-02T03:38:00;101010;;;-3.8;100.0
68320;BME280;55168;51.120;17.024;2023-03-02T03:39:00;101010;;;-3.8;100.0
68320;BME280;55168;51.120;17.024;2023-03-02T03:40:00;101000;;;-3.8;100.0
68320;BME280;55168;51.120;17.024;2023-03-02T03:41:00;101000;;;-3.8;100.0
68320;BME280;55168;51.120;17.024;2023-03-02T03:42:00;101000;;;-3.8;100.0
68320;BME280;55168;51.120;17.024;2023-03-02T03:43:00;101000;;;-3.8;100.0
68320;BME280;55168;51.120;17.024;2023-03-02T03:44:00;101000;;;-3.8;100.0
68320;BME280;55168;51.120;17.024;2023-03-02T03:45:00;101010;;;-3.8;100.0
68320;BME280;55168;51.120;17.024;2023-03-02T03:46:00;101010;;;-3.8;100.0
68320;BME280;55168;51.120;17.024;2023-03-02T03:47:00;101010;;;-3.7;100.0
68320;BME280;55168;51.120;17.024;2023-03-02T03:48:00;101010;;;-3.8;100.0
68320;BME280;55168;51.120;17.024;2023-03-02T03:49:00;101000;;;-3.8;100.0
68320;BME280;55168;51.120;17.024;2023-03-02T03:50:00;101000;;;-3.8;100.0
68320;BME280;55168;51.120;17.024;2023-03-02T03:51:00;101000;;;-3.9;100.0
68320;BME280;55168;51.120;17.024;2023-03-02T03:52:00;101000;;;-3.9;100.0
68320;BME280;55168;51.120;17.024;2023-03-02T03:53:00;101000;;;-3.9;100.0
68320;BME280;55168;51.120;17.024;2023-03-02T03:54:02;101000;;;-3.9;100.0
68320;BME280;55168;51.120;17.024;2023-03-02T03:55:00;101000;;;-4.0;100.0
68320;BME280;55168;51.120;17.024;2023-03-02T03:56:00;101000;;;-4.0;100.0
68320;BME280;55168;51.120;17.024;2023-03-02T03:57:00;101000;;;-4.0;100.0
68320;BME280;55168;51.120;17.024;2023-03-02T03:58:00;101000;;;-4.0;100.0
68320;BME280;55168;51.120;17.024;2023-03-02T03:59:00;101000;;;-4.0;100.0
68320;BME280;55168;51.120;17.024;2023-03-02T04:00:00;100990;;;-4.1;100.0
68320;BME280;55168;51.120;17.024;2023-03-02T04:01:00;101000;;;-4.1;100.0
68320;BME280;55168;51.120;17.024;2023-03-02T04:02:00;101000;;;-4.0;100.0
68320;BME280;55168;51.120;17.024;2023-03-02T04:03:00;101000;;;-4.1;100.0
68320;BME280;55168;51.120;17.024;2023-03-02T04:04:01;101000;;;-4.1;100.0
68320;BME280;55168;51.120;17.024;2023-03-02T04:05:00;101000;;;-4.1;100.0
68320;BME280;55168;51.120;17.024;2023-03-02T04:06:00;101000;;;-4.0;100.0
68320;BME280;55168;51.120;17.024;2023-03-02T04:07:00;101000;;;-4.0;100.0
68320;BME280;55168;51.120;17.024;2023-03-02T04:08:00;101000;;;-4.0;100.0
68320;BME280;55168;51.120;17.024;2023-03-02T04:09:00;101000;;;-3.9;100.0
68320;BME280;55168;51.120;17.024;2023-03-02T04:10:00;101000;;;-3.9;100.0
68320;BME280;55168;51.120;17.024;2023-03-02T04:11:00;101000;;;-4.0;100.0
68320;BME280;55168;51.120;17.024;2023-03-02T04:12:00;101000;;;-4.0;100.0
68320;BME280;55168;51.120;17.024;2023-03-02T04:13:00;101000;;;-4.0;100.0
68320;BME280;55168;51.120;17.024;2023-03-02T04:14:00;101000;;;-4.1;100.0
68320;BME280;55168;51.120;17.024;2023-03-02T04:15:00;101000;;;-4.1;100.0
68320;BME280;55168;51.120;17.024;2023-03-02T04:16:00;101000;;;-4.1;100.0
68320;BME280;55168;51.120;17.024;2023-03-02T04:17:00;101000;;;-4.2;100.0
68320;BME280;55168;51.120;17.024;2023-03-02T04:18:00;101000;;;-4.2;100.0
68320;BME280;55168;51.120;17.024;2023-03-02T04:19:00;101010;;;-4.2;100.0
68320;BME280;55168;51.120;17.024;2023-03-02T04:20:00;101000;;;-4.2;100.0
68320;BME280;55168;51.120;17.024;2023-03-02T04:21:00;101000;;;-4.3;100.0
68320;BME280;55168;51.120;17.024;2023-03-02T04:22:00;101000;;;-4.3;100.0
68320;BME280;55168;51.120;17.024;2023-03-02T04:23:00;101000;;;-4.3;100.0
68320;BME280;55168;51.120;17.024;2023-03-02T04:24:00;101000;;;-4.2;100.0
68320;BME280;55168;51.120;17.024;2023-03-02T04:25:00;101000;;;-4.2;100.0
68320;BME280;55168;51.120;17.024;2023-03-02T04:26:00;100990;;;-4.2;100.0
68320;BME280;55168;51.120;17.024;2023-03-02T04:27:00;101000;;;-4.2;100.0
68320;BME280;55168;51.120;17.024;2023-03-02T04:28:00;100990;;;-4.2;100.0
68320;BME280;55168;51.120;17.024;2023-03-02T04:29:00;101000;;;-4.2;100.0
68320;BME280;55168;51.120;17.024;2023-03-02T04:30:00;100990;;;-4.2;100.0
68320;BME280;55168;51.120;17.024;2023-03-02T04:31:00;100990;;;-4.2;100.0
68320;BME280;55168;51.120;17.024;2023-03-02T04:32:00;101000;;;-4.2;100.0
68320;BME280;55168;51.120;17.024;2023-03-02T04:33:00;101000;;;-4.2;100.0
68320;BME280;55168;51.120;17.024;2023-03-02T04:34:00;100990;;;-4.1;100.0
68320;BME280;55168;51.120;17.024;2023-03-02T04:35:00;100990;;;-4.1;100.0
68320;BME280;55168;51.120;17.024;2023-03-02T04:36:00;100990;;;-4.1;100.0
68320;BME280;55168;51.120;17.024;2023-03-02T04:37:00;100990;;;-4.1;100.0
68320;BME280;55168;51.120;17.024;2023-03-02T04:38:00;100990;;;-4.1;100.0
68320;BME280;55168;51.120;17.024;2023-03-02T04:39:00;100990;;;-4.1;100.0
68320;BME280;55168;51.120;17.024;2023-03-02T04:40:00;100990;;;-4.1;100.0
68320;BME280;55168;51.120;17.024;2023-03-02T04:41:00;100990;;;-4.1;100.0
68320;BME280;55168;51.120;17.024;2023-03-02T04:42:00;100980;;;-4.1;100.0
68320;BME280;55168;51.120;17.024;2023-03-02T04:43:00;100980;;;-4.1;100.0
68320;BME280;55168;51.120;17.024;2023-03-02T04:44:00;100990;;;-4.2;100.0
68320;BME280;55168;51.120;17.024;2023-03-02T04:45:00;100980;;;-4.1;100.0
68320;BME280;55168;51.120;17.024;2023-03-02T04:46:00;100990;;;-4.1;100.0
68320;BME280;55168;51.120;17.024;2023-03-02T04:47:00;100990;;;-4.0;100.0
68320;BME280;55168;51.120;17.024;2023-03-02T04:48:00;100990;;;-4.0;100.0
68320;BME280;55168;51.120;17.024;2023-03-02T04:49:00;100990;;;-4.0;100.0
68320;BME280;55168;51.120;17.024;2023-03-02T04:50:00;100990;;;-4.0;100.0
68320;BME280;55168;51.120;17.024;2023-03-02T04:51:00;100990;;;-4.0;100.0
68320;BME280;55168;51.120;17.024;2023-03-02T04:52:00;100990;;;-4.0;100.0
68320;BME280;55168;51.120;17.024;2023-03-02T04:53:00;100990;;;-4.0;100.0
68320;BME280;55168;51.120;17.024;2023-03-02T04:54:01;100980;;;-4.0;100.0
68320;BME280;55168;51.120;17.024;2023-03-02T04:55:00;100980;;;-4.0;100.0
68320;BME280;55168;51.120;17.024;2023-03-02T04:56:00;100990;;;-4.0;100.0
68320;BME280;55168;51.120;17.024;2023-03-02T04:57:00;100980;;;-4.1;100.0
68320;BME280;55168;51.120;17.024;2023-03-02T04:58:00;100980;;;-4.1;100.0
68320;BME280;55168;51.120;17.024;2023-03-02T04:59:00;100980;;;-4.1;100.0
68320;BME280;55168;51.120;17.024;2023-03-02T05:00:00;100980;;;-4.1;100.0
68320;BME280;55168;51.120;17.024;2023-03-02T05:01:00;100980;;;-4.1;100.0
68320;BME280;55168;51.120;17.024;2023-03-02T05:02:00;100980;;;-4.1;100.0
68320;BME280;55168;51.120;17.024;2023-03-02T05:03:00;100980;;;-4.2;100.0
68320;BME280;55168;51.120;17.024;2023-03-02T05:04:00;100980;;;-4.2;100.0
68320;BME280;55168;51.120;17.024;2023-03-02T05:05:00;100980;;;-4.2;100.0
68320;BME280;55168;51.120;17.024;2023-03-02T05:06:00;100980;;;-4.2;100.0
68320;BME280;55168;51.120;17.024;2023-03-02T05:07:00;100990;;;-4.2;100.0
68320;BME280;55168;51.120;17.024;2023-03-02T05:08:00;100980;;;-4.2;100.0
68320;BME280;55168;51.120;17.024;2023-03-02T05:09:00;100980;;;-4.1;100.0
68320;BME280;55168;51.120;17.024;2023-03-02T05:10:00;100980;;;-4.1;100.0
68320;BME280;55168;51.120;17.024;2023-03-02T05:11:00;100980;;;-4.2;100.0
68320;BME280;55168;51.120;17.024;2023-03-02T05:12:00;100980;;;-4.2;100.0
68320;BME280;55168;51.120;17.024;2023-03-02T05:13:00;100980;;;-4.2;100.0
68320;BME280;55168;51.120;17.024;2023-03-02T05:14:01;100980;;;-4.2;100.0
68320;BME280;55168;51.120;17.024;2023-03-02T05:15:00;100980;;;-4.2;100.0
68320;BME280;55168;51.120;17.024;2023-03-02T05:16:00;100980;;;-4.1;100.0
68320;BME280;55168;51.120;17.024;2023-03-02T05:17:00;100990;;;-4.0;100.0
68320;BME280;55168;51.120;17.024;2023-03-02T05:18:00;100990;;;-4.0;100.0
68320;BME280;55168;51.120;17.024;2023-03-02T05:19:00;100990;;;-4.0;100.0
68320;BME280;55168;51.120;17.024;2023-03-02T05:20:00;100990;;;-4.0;100.0
68320;BME280;55168;51.120;17.024;2023-03-02T05:21:00;100990;;;-4.0;100.0
68320;BME280;55168;51.120;17.024;2023-03-02T05:22:00;100990;;;-4.0;100.0
68320;BME280;55168;51.120;17.024;2023-03-02T05:23:01;100990;;;-4.0;100.0
68320;BME280;55168;51.120;17.024;2023-03-02T05:24:00;100990;;;-4.0;100.0
68320;BME280;55168;51.120;17.024;2023-03-02T05:25:00;100990;;;-3.9;100.0
68320;BME280;55168;51.120;17.024;2023-03-02T05:26:00;100990;;;-3.8;100.0
68320;BME280;55168;51.120;17.024;2023-03-02T05:27:00;100990;;;-3.8;100.0
68320;BME280;55168;51.120;17.024;2023-03-02T05:28:00;100990;;;-3.8;100.0
68320;BME280;55168;51.120;17.024;2023-03-02T05:29:00;100990;;;-3.8;100.0